Time;durP1;ratioP1;P1;durP2;ratioP2;P2;SDS_P1;SDS_P2;PMS_P1;PMS_P2;Temp;Humidity;BMP_temperature;BMP_pressure;BME280_temperature;BME280_humidity;BME280_pressure;Samples;Min_cycle;Max_cycle;Signal;HPM_P1;HPM_P2
2022/12/06 00:01:47;;;;;;;17.58;6.20;;;;;;;;;;4933001;29;20040;-75
2022/12/06 00:04:15;;;;;;;13.23;7.40;;;-0.90;99.90;;;;;;4933187;29;20036;-75
2022/12/06 00:06:53;;;;;;;11.73;4.38;;;-0.70;99.90;;;;;;4933282;29;20032;-75
2022/12/06 00:09:19;;;;;;;8.77;4.28;;;;;;;;;;4933447;29;20552;-75
2022/12/06 00:11:45;;;;;;;14.90;7.30;;;;;;;;;;4933197;29;20040;-75
2022/12/06 00:14:11;;;;;;;12.40;6.28;;;;;;;;;;4932747;29;20043;-76
2022/12/06 00:16:37;;;;;;;20.67;8.38;;;;;;;;;;4932847;29;20040;-75
2022/12/06 00:19:04;;;;;;;16.95;9.45;;;-0.50;99.90;;;;;;4933356;29;20035;-75
2022/12/06 00:21:33;;;;;;;13.68;7.75;;;-0.50;99.90;;;;;;4932852;29;20124;-75
2022/12/06 00:24:01;;;;;;;13.68;6.03;;;-0.50;99.90;;;;;;4933234;29;20043;-75
2022/12/06 00:26:28;;;;;;;11.25;5.57;;;-0.50;99.90;;;;;;4933028;29;20035;-75
2022/12/06 00:28:59;;;;;;;8.98;5.63;;;-1.00;99.90;;;;;;4933227;29;20064;-75
2022/12/06 00:31:26;;;;;;;8.10;4.35;;;-0.60;99.90;;;;;;4932767;29;20150;-75
2022/12/06 00:33:53;;;;;;;9.95;4.97;;;;;;;;;;4932722;29;20401;-75
2022/12/06 00:36:22;;;;;;;16.83;6.60;;;-0.70;99.90;;;;;;4932976;29;20070;-76
2022/12/06 00:38:48;;;;;;;13.20;6.70;;;0.50;99.90;;;;;;4932713;29;20039;-75
2022/12/06 00:41:19;;;;;;;20.50;7.95;;;-0.90;99.90;;;;;;4933101;29;20540;-75
2022/12/06 00:43:46;;;;;;;13.48;6.38;;;;;;;;;;4931962;29;20066;-75
2022/12/06 00:46:16;;;;;;;9.23;5.07;;;-1.50;99.90;;;;;;4932220;29;20512;-75
2022/12/06 00:48:42;;;;;;;14.60;8.20;;;-1.20;99.90;;;;;;4932686;29;20046;-75
2022/12/06 00:51:08;;;;;;;10.23;4.82;;;;;;;;;;4932865;29;20019;-75
2022/12/06 00:53:34;;;;;;;19.52;7.95;;;;;;;;;;4931097;29;20071;-75
2022/12/06 00:56:00;;;;;;;10.68;5.95;;;;;;;;;;4932729;29;20466;-74
2022/12/06 00:58:26;;;;;;;12.93;7.47;;;-1.40;99.90;;;;;;4932263;29;20036;-75
2022/12/06 01:00:52;;;;;;;25.23;7.32;;;;;;;;;;4932503;29;20032;-75
2022/12/06 01:03:18;;;;;;;23.60;8.43;;;;;;;;;;4932151;29;20405;-74
2022/12/06 01:05:48;;;;;;;6.88;5.80;;;-1.90;99.90;;;;;;4932756;29;20046;-75
2022/12/06 01:08:16;;;;;;;8.25;4.88;;;-1.20;99.90;;;;;;4930727;29;20032;-75
2022/12/06 01:10:42;;;;;;;11.60;4.70;;;;;;;;;;4926010;29;20501;-75
2022/12/06 01:13:08;;;;;;;10.88;6.82;;;;;;;;;;4924914;29;20138;-75
2022/12/06 01:15:37;;;;;;;14.23;5.53;;;-0.80;99.90;;;;;;4930401;29;20024;-75
2022/12/06 01:18:03;;;;;;;13.48;7.70;;;-0.80;99.90;;;;;;4932241;29;20031;-75
2022/12/06 01:20:29;;;;;;;8.38;5.35;;;;;;;;;;4931971;29;20042;-75
2022/12/06 01:22:55;;;;;;;13.98;6.28;;;-0.90;99.90;;;;;;4932123;29;20602;-75
2022/12/06 01:25:21;;;;;;;11.13;5.85;;;-0.60;99.90;;;;;;4934369;29;20111;-75
2022/12/06 01:27:47;;;;;;;13.48;5.13;;;;;;;;;;4931410;29;20102;-75
2022/12/06 01:30:13;;;;;;;17.17;6.90;;;;;;;;;;4931830;29;20530;-74
2022/12/06 01:32:39;;;;;;;14.60;5.88;;;;;;;;;;4931456;29;20046;-74
2022/12/06 01:35:05;;;;;;;9.38;5.70;;;;;;;;;;4930682;29;20551;-75
2022/12/06 01:37:31;;;;;;;9.65;6.03;;;;;;;;;;4931516;29;20039;-75
2022/12/06 01:39:57;;;;;;;7.03;4.30;;;;;;;;;;4931752;29;20027;-74
2022/12/06 01:42:23;;;;;;;9.30;6.53;;;;;;;;;;4931742;29;20098;-75
2022/12/06 01:44:51;;;;;;;11.60;5.82;;;-1.20;99.90;;;;;;4931115;29;20094;-75
2022/12/06 01:47:27;;;;;;;17.48;6.25;;;-0.80;99.90;;;;;;4931944;29;20102;-74
2022/12/06 01:50:01;;;;;;;16.58;7.97;;;-1.10;99.90;;;;;;4931677;29;20457;-75
2022/12/06 01:52:47;;;;;;;12.60;6.20;;;-1.00;99.90;;;;;;4931791;29;20050;-75
2022/12/06 01:55:14;;;;;;;21.38;7.70;;;-1.00;99.90;;;;;;4931206;29;20421;-75
2022/12/06 01:57:41;;;;;;;11.73;6.65;;;;;;;;;;4931346;29;20035;-74
2022/12/06 02:00:07;;;;;;;11.38;7.18;;;-1.10;99.90;;;;;;4931470;29;20023;-74
2022/12/06 02:02:33;;;;;;;14.25;8.68;;;-1.10;99.90;;;;;;4930064;29;20796;-75
2022/12/06 02:05:00;;;;;;;17.20;8.10;;;-1.20;99.90;;;;;;4931101;29;20114;-75
2022/12/06 02:07:26;;;;;;;;;;;-1.20;99.90;;;;;;4931483;29;20039;-75
2022/12/06 02:09:53;;;;;;;8.60;4.75;;;-1.40;99.90;;;;;;4931278;29;19907;-75
2022/12/06 02:12:19;;;;;;;5.40;4.72;;;;;;;;;;4942508;29;20027;-74
2022/12/06 02:14:49;;;;;;;10.73;6.82;;;-1.40;99.90;;;;;;4931120;29;20046;-75
2022/12/06 02:17:24;;;;;;;14.38;6.75;;;-1.40;99.90;;;;;;4930816;29;20076;-75
2022/12/06 02:20:17;;;;;;;6.68;5.07;;;-1.40;99.90;;;;;;4931305;29;20028;-74
2022/12/06 02:23:28;;;;;;;14.75;7.57;;;-1.30;99.90;;;;;;4931410;29;20035;-75
2022/12/06 02:26:38;;;;;;;25.80;7.15;;;-1.30;99.90;;;;;;4931177;29;20043;-75
2022/12/06 02:29:16;;;;;;;21.65;11.68;;;-1.30;99.90;;;;;;4909608;29;20044;-75
2022/12/06 02:31:59;;;;;;;15.95;8.27;;;-1.10;99.90;;;;;;4909356;29;20048;-75
2022/12/06 02:34:25;;;;;;;9.38;4.88;;;;;;;;;;4909636;29;20047;-74
2022/12/06 02:37:09;;;;;;;15.63;7.07;;;-0.90;99.90;;;;;;4909533;29;20036;-75
2022/12/06 02:39:35;;;;;;;14.38;7.20;;;-0.80;99.90;;;;;;4909386;29;20084;-75
2022/12/06 02:42:07;;;;;;;18.70;7.70;;;-0.70;99.90;;;;;;4909615;29;20028;-75
2022/12/06 02:44:38;;;;;;;10.80;6.00;;;-0.50;99.90;;;;;;4908891;29;20044;-75
2022/12/06 02:47:06;;;;;;;21.75;6.40;;;-0.40;99.90;;;;;;4909141;29;20783;-75
2022/12/06 02:49:32;;;;;;;;;;;-0.20;99.90;;;;;;4909546;29;20024;-75
2022/12/06 02:51:58;;;;;;;18.43;12.03;;;;;;;;;;4909245;29;19989;-75
2022/12/06 02:54:25;;;;;;;25.33;9.57;;;-0.10;99.90;;;;;;4908840;29;20375;-75
2022/12/06 02:56:51;;;;;;;20.42;10.52;;;;;;;;;;4908989;29;20043;-74
2022/12/06 02:59:17;;;;;;;17.38;6.78;;;;;;;;;;4909034;29;20131;-74
2022/12/06 03:01:48;;;;;;;12.35;6.47;;;-0.30;99.90;;;;;;4909372;29;20107;-74
2022/12/06 03:04:45;;;;;;;22.92;7.55;;;-0.20;99.90;;;;;;4917648;29;20032;-75
2022/12/06 03:07:22;;;;;;;14.40;5.03;;;-0.30;99.90;;;;;;4930619;29;20051;-74
2022/12/06 03:09:48;;;;;;;12.27;5.93;;;;;;;;;;4961448;28;20500;-75
2022/12/06 03:12:20;;;;;;;12.70;6.78;;;-1.90;99.90;;;;;;4930796;29;20120;-75
2022/12/06 03:14:46;;;;;;;16.17;6.43;;;;;;;;;;4932231;29;20028;-74
2022/12/06 03:17:34;;;;;;;9.43;4.00;;;-0.40;99.90;;;;;;4931996;29;20035;-74
2022/12/06 03:20:07;;;;;;;11.52;6.78;;;-0.50;99.90;;;;;;4934452;29;20450;-74
2022/12/06 03:22:37;;;;;;;7.63;3.97;;;-0.50;99.90;;;;;;4934074;29;20413;-74
2022/12/06 03:25:04;;;;;;;7.38;4.40;;;-0.50;99.90;;;;;;4933772;29;20054;-74
2022/12/06 03:27:32;;;;;;;5.13;4.00;;;-0.70;99.90;;;;;;4934020;29;20027;-75
2022/12/06 03:30:02;;;;;;;7.60;4.20;;;-0.50;99.90;;;;;;4932935;29;20124;-75
2022/12/06 03:32:32;;;;;;;8.15;4.40;;;-0.50;99.90;;;;;;4934394;29;20039;-75
2022/12/06 03:35:01;;;;;;;8.48;4.78;;;-0.50;99.90;;;;;;4933921;29;20042;-74
2022/12/06 03:37:30;;;;;;;13.10;6.05;;;-0.60;99.90;;;;;;4933895;29;20497;-75
2022/12/06 03:39:56;;;;;;;10.27;4.43;;;;;;;;;;4933504;29;20111;-75
2022/12/06 03:42:22;;;;;;;9.65;5.93;;;;;;;;;;4934208;29;20114;-75
2022/12/06 03:44:48;;;;;;;11.00;5.57;;;;;;;;;;4933033;29;20063;-75
2022/12/06 03:47:24;;;;;;;17.10;5.80;;;-0.40;99.90;;;;;;4933662;29;20465;-75
2022/12/06 03:49:57;;;;;;;7.55;3.70;;;-1.70;99.90;;;;;;4933592;29;20039;-74
2022/12/06 03:52:24;;;;;;;8.02;4.43;;;-0.50;99.90;;;;;;4933946;29;20046;-75
2022/12/06 03:54:50;;;;;;;9.05;5.63;;;;;;;;;;4933119;29;20051;-75
2022/12/06 03:57:16;;;;;;;9.98;5.30;;;;;;;;;;4933612;29;20036;-74
2022/12/06 03:59:42;;;;;;;8.98;5.15;;;;;;;;;;4933398;29;20110;-75
2022/12/06 04:02:08;;;;;;;6.00;3.67;;;;;;;;;;4933642;29;20035;-75
2022/12/06 04:04:34;;;;;;;6.50;4.25;;;;;;;;;;4933046;29;20055;-75
2022/12/06 04:07:00;;;;;;;11.48;5.35;;;;;;;;;;4933320;29;20145;-75
2022/12/06 04:14:55;;;;;;;13.00;7.30;;;-0.30;99.90;;;;;;4932958;29;20562;-75
2022/12/06 04:20:05;;;;;;;9.50;5.38;;;-0.20;99.90;;;;;;4933166;29;20520;-75
2022/12/06 04:25:16;;;;;;;8.57;4.25;;;;;;;;;;4933200;29;20054;-75
2022/12/06 04:38:41;;;;;;;8.20;5.43;;;;;;;;;;4933077;29;20126;-75
2022/12/06 04:41:07;;;;;;;8.73;5.00;;;0.00;99.90;;;;;;4947823;29;20553;-75
2022/12/06 04:43:42;;;;;;;10.07;4.55;;;;;;;;;;4932563;29;20043;-75
2022/12/06 04:46:12;;;;;;;6.10;3.08;;;0.00;99.90;;;;;;4932024;29;20532;-75
2022/12/06 04:48:38;;;;;;;9.15;4.85;;;0.10;99.90;;;;;;4947415;29;20035;-75
2022/12/06 04:51:04;;;;;;;11.18;4.82;;;0.10;99.90;;;;;;4932540;29;20036;-74
2022/12/06 04:53:30;;;;;;;5.43;4.72;;;0.20;99.90;;;;;;4932414;29;20062;-74
2022/12/06 04:55:56;;;;;;;6.05;4.63;;;;;;;;;;4932217;29;20024;-75
2022/12/06 04:58:22;;;;;;;8.23;4.90;;;;;;;;;;4932847;29;20028;-75
2022/12/06 05:00:53;;;;;;;14.02;7.70;;;0.20;99.90;;;;;;4931045;29;20027;-75
2022/12/06 05:03:19;;;;;;;12.98;5.80;;;0.20;99.90;;;;;;4932362;29;20058;-75
2022/12/06 05:05:45;;;;;;;8.82;6.68;;;;;;;;;;4931824;29;20040;-74
2022/12/06 05:08:11;;;;;;;5.60;3.33;;;0.20;99.90;;;;;;4934957;29;20399;-74
2022/12/06 05:10:38;;;;;;;5.70;4.80;;;;;;;;;;4932472;29;20083;-74
2022/12/06 05:13:04;;;;;;;6.50;5.13;;;0.40;99.90;;;;;;4932223;29;20044;-75
2022/12/06 05:15:30;;;;;;;6.65;5.03;;;0.30;99.90;;;;;;4931659;29;20063;-75
2022/12/06 05:17:56;;;;;;;16.20;5.32;;;;;;;;;;4931782;29;20031;-75
2022/12/06 05:20:22;;;;;;;15.70;6.22;;;0.20;99.90;;;;;;4930092;29;20030;-75
2022/12/06 05:22:48;;;;;;;19.30;6.55;;;;;;;;;;4932351;29;20042;-75
2022/12/06 05:25:15;;;;;;;23.60;6.63;;;;;;;;;;4932193;29;20024;-75
2022/12/06 05:27:41;;;;;;;13.65;6.72;;;0.50;99.90;;;;;;4932118;29;20034;-75
2022/12/06 05:30:07;;;;;;;23.42;6.85;;;;;;;;;;4932051;29;20035;-75
2022/12/06 05:32:33;;;;;;;10.88;5.72;;;;;;;;;;4932160;29;20382;-75
2022/12/06 05:34:59;;;;;;;8.23;6.13;;;;;;;;;;4931616;29;20034;-75
2022/12/06 05:37:25;;;;;;;17.85;6.95;;;;;;;;;;4931664;29;20035;-75
2022/12/06 05:39:51;;;;;;;16.50;6.75;;;;;;;;;;4931365;29;20023;-75
2022/12/06 05:42:17;;;;;;;16.63;6.68;;;0.10;99.90;;;;;;4932154;29;20023;-74
2022/12/06 05:44:43;;;;;;;18.38;7.82;;;;;;;;;;4931072;29;20416;-75
2022/12/06 05:47:09;;;;;;;10.48;5.93;;;;;;;;;;4930274;29;20252;-75
2022/12/06 05:49:35;;;;;;;20.92;5.25;;;;;;;;;;4931601;29;20035;-75
2022/12/06 05:52:01;;;;;;;10.18;6.18;;;;;;;;;;4932084;29;20495;-75
2022/12/06 05:54:26;;;;;;;16.15;6.90;;;0.50;99.90;;;;;;4931285;29;20044;-75
2022/12/06 05:56:52;;;;;;;18.15;7.63;;;;;;;;;;4931436;29;20413;-75
2022/12/06 05:59:18;;;;;;;11.23;5.85;;;;;;;;;;4931502;29;20039;-75
2022/12/06 06:01:44;;;;;;;18.98;7.90;;;;;;;;;;4931514;29;20504;-75
2022/12/06 06:04:10;;;;;;;23.20;8.02;;;;;;;;;;4931159;29;20024;-75
2022/12/06 06:06:36;;;;;;;18.10;8.13;;;;;;;;;;4930889;29;20028;-75
2022/12/06 06:09:02;;;;;;;22.83;6.63;;;0.60;99.90;;;;;;4925415;29;20035;-75
2022/12/06 06:11:27;;;;;;;11.27;6.65;;;0.60;99.90;;;;;;4929755;29;20043;-75
2022/12/06 06:13:54;;;;;;;18.38;7.00;;;;;;;;;;4930196;29;20032;-74
2022/12/06 06:16:20;;;;;;;17.70;6.90;;;0.70;99.90;;;;;;4930800;29;20031;-74
2022/12/06 06:18:46;;;;;;;13.10;6.38;;;;;;;;;;4930609;29;20115;-75
2022/12/06 06:21:12;;;;;;;18.33;6.88;;;0.80;99.90;;;;;;4929158;29;20409;-74
2022/12/06 06:23:38;;;;;;;17.00;5.93;;;0.90;99.90;;;;;;4929567;29;20036;-74
2022/12/06 06:26:08;;;;;;;10.88;5.97;;;0.80;99.90;;;;;;4929716;29;20027;-74
2022/12/06 06:28:34;;;;;;;14.25;7.43;;;;;;;;;;4931678;29;20024;-74
2022/12/06 06:31:04;;;;;;;14.50;4.95;;;0.80;99.90;;;;;;4923984;29;20042;-74
2022/12/06 06:33:31;;;;;;;14.95;5.97;;;0.70;99.90;;;;;;4925808;29;20036;-74
2022/12/06 06:35:56;;;;;;;8.63;5.13;;;0.70;99.90;;;;;;4928558;28;20020;-74
2022/12/06 06:38:22;;;;;;;13.00;5.97;;;;;;;;;;4929049;29;20920;-74
2022/12/06 06:40:48;;;;;;;6.45;4.50;;;;;;;;;;4927973;29;20401;-75
2022/12/06 06:43:17;;;;;;;18.10;7.35;;;;;;;;;;4923017;29;20023;-77
2022/12/06 06:45:44;;;;;;;14.30;5.90;;;0.80;99.90;;;;;;4929606;29;20031;-77
2022/12/06 06:48:11;;;;;;;24.98;6.07;;;1.00;99.90;;;;;;4928264;29;20020;-76
2022/12/06 06:50:37;;;;;;;19.35;5.72;;;;;;;;;;4928872;29;20154;-77
2022/12/06 06:53:03;;;;;;;25.58;7.28;;;0.90;99.90;;;;;;4932742;29;20048;-76
2022/12/06 06:55:29;;;;;;;16.23;6.70;;;;;;;;;;4932241;29;20626;-76
2022/12/06 06:57:55;;;;;;;10.75;4.57;;;;;;;;;;4932715;29;20134;-75
2022/12/06 07:00:21;;;;;;;15.50;6.03;;;;;;;;;;4935688;29;20162;-76
2022/12/06 07:02:47;;;;;;;8.38;7.38;;;1.00;99.90;;;;;;4935214;29;20393;-77
2022/12/06 07:05:13;;;;;;;12.43;5.35;;;;;;;;;;4938117;29;20028;-76
2022/12/06 07:07:39;;;;;;;10.30;4.82;;;;;;;;;;4933337;29;20493;-76
2022/12/06 07:10:05;;;;;;;17.60;6.90;;;0.70;99.90;;;;;;4933157;29;20043;-76
2022/12/06 07:12:30;;;;;;;10.88;6.30;;;0.90;99.90;;;;;;4933008;29;20054;-76
2022/12/06 07:14:56;;;;;;;10.10;5.85;;;0.90;99.90;;;;;;4927914;29;20110;-76
2022/12/06 07:17:23;;;;;;;8.80;4.22;;;;;;;;;;4932742;29;20088;-76
2022/12/06 07:19:49;;;;;;;14.38;5.60;;;;;;;;;;4932771;29;20115;-76
2022/12/06 07:22:15;;;;;;;9.60;6.05;;;1.00;99.90;;;;;;4931583;29;20071;-76
2022/12/06 07:24:41;;;;;;;12.52;5.18;;;;;;;;;;4933399;29;20036;-80
2022/12/06 07:27:07;;;;;;;16.13;7.35;;;;;;;;;;4930102;29;20027;-77
2022/12/06 07:29:33;;;;;;;13.80;5.53;;;;;;;;;;4929422;29;20457;-78
2022/12/06 07:31:58;;;;;;;11.98;6.18;;;;;;;;;;4930048;29;20031;-78
2022/12/06 07:34:24;;;;;;;10.27;5.50;;;;;;;;;;4926093;29;20032;-82
2022/12/06 07:36:50;;;;;;;11.38;4.95;;;;;;;;;;4933041;29;20457;-81
2022/12/06 07:39:16;;;;;;;21.50;5.85;;;1.10;99.90;;;;;;4933680;29;20114;-81
2022/12/06 07:47:10;;;;;;;8.73;4.63;;;1.30;99.90;;;;;;4934919;29;20038;-78
2022/12/06 07:49:36;;;;;;;15.75;5.05;;;;;;;;;;4932297;29;20035;-80
2022/12/06 07:52:02;;;;;;;14.52;5.57;;;;;;;;;;4933315;29;20044;-75
2022/12/06 07:54:28;;;;;;;11.40;3.97;;;;;;;;;;4932549;29;20433;-78
2022/12/06 07:56:55;;;;;;;10.85;5.00;;;;;;;;;;4932596;29;20044;-77
2022/12/06 07:59:21;;;;;;;11.05;5.22;;;;;;;;;;4932554;29;20106;-78
2022/12/06 08:01:47;;;;;;;7.15;3.35;;;;;;;;;;4932984;29;20118;-78
2022/12/06 08:04:13;;;;;;;12.75;5.32;;;;;;;;;;4931799;29;20808;-77
2022/12/06 08:06:39;;;;;;;8.45;5.50;;;2.10;99.90;;;;;;4932683;29;20038;-79
2022/12/06 08:09:05;;;;;;;9.73;4.25;;;;;;;;;;4932425;29;20036;-73
2022/12/06 08:11:31;;;;;;;5.75;3.55;;;2.20;99.90;;;;;;4932171;29;20392;-73
2022/12/06 08:13:57;;;;;;;13.30;5.32;;;2.40;99.90;;;;;;4931594;29;20031;-73
2022/12/06 08:16:23;;;;;;;8.27;3.95;;;;;;;;;;4932519;29;20030;-77
2022/12/06 08:18:49;;;;;;;17.75;5.70;;;;;;;;;;4931413;29;20494;-78
2022/12/06 08:21:15;;;;;;;12.80;5.75;;;3.30;99.90;;;;;;4925840;29;20020;-74
2022/12/06 08:23:40;;;;;;;10.15;5.28;;;3.40;99.90;;;;;;4932016;29;20020;-76
2022/12/06 08:26:13;;;;;;;7.78;4.38;;;4.30;99.90;;;;;;4931965;29;20039;-79
2022/12/06 08:28:40;;;;;;;8.82;4.10;;;;;;;;;;4931922;29;20020;-81
2022/12/06 08:31:08;;;;;;;9.80;4.05;;;5.30;99.60;;;;;;4932428;29;20102;-82
2022/12/06 08:33:34;;;;;;;13.27;4.88;;;5.60;96.50;;;;;;4931914;29;20044;-81
2022/12/06 08:36:01;;;;;;;12.15;5.00;;;;;;;;;;4932029;29;20051;-79
2022/12/06 08:38:27;;;;;;;10.90;4.38;;;5.40;95.20;;;;;;4931964;29;20610;-79
2022/12/06 08:40:53;;;;;;;8.63;4.18;;;;;;;;;;4931637;29;20119;-81
2022/12/06 08:43:19;;;;;;;6.28;4.13;;;;;;;;;;4931578;29;20024;-79
2022/12/06 08:45:50;;;;;;;12.00;5.70;;;5.10;99.90;;;;;;4931454;29;20028;-78
2022/12/06 08:48:15;;;;;;;10.40;4.30;;;4.80;99.90;;;;;;4926262;28;20134;-73
2022/12/06 08:50:41;;;;;;;14.68;4.90;;;;;;;;;;4932010;29;20448;-77
2022/12/06 08:53:07;;;;;;;7.22;4.43;;;;;;;;;;4931467;29;20047;-76
2022/12/06 08:55:33;;;;;;;16.45;6.03;;;;;;;;;;4938206;29;20036;-78
2022/12/06 08:57:58;;;;;;;12.90;5.15;;;5.20;99.90;;;;;;4931696;29;20485;-79
2022/12/06 09:00:25;;;;;;;12.52;6.00;;;;;;;;;;4931756;29;20027;-80
2022/12/06 09:02:50;;;;;;;22.00;6.70;;;;;;;;;;4931506;29;20027;-78
2022/12/06 09:05:16;;;;;;;11.43;5.05;;;8.00;93.50;;;;;;4931770;29;20082;-79
2022/12/06 09:07:42;;;;;;;15.95;7.13;;;;;;;;;;4931196;29;20026;-80
2022/12/06 09:10:08;;;;;;;17.80;7.80;;;8.00;87.30;;;;;;4930994;29;20038;-80
2022/12/06 09:12:34;;;;;;;12.25;6.13;;;;;;;;;;4961296;28;20047;-79
2022/12/06 09:15:00;;;;;;;15.73;7.97;;;;;;;;;;4929764;29;20031;-79
2022/12/06 09:17:26;;;;;;;13.77;6.93;;;;;;;;;;4961174;28;20038;-82
2022/12/06 09:19:52;;;;;;;20.77;7.72;;;15.60;77.60;;;;;;4930727;29;20094;-82
2022/12/06 09:22:18;;;;;;;14.43;7.50;;;;;;;;;;4930691;29;20027;-77
2022/12/06 09:24:43;;;;;;;15.65;7.85;;;16.20;65.60;;;;;;4931337;29;20058;-81
2022/12/06 09:27:09;;;;;;;16.52;7.13;;;;;;;;;;4930547;29;20024;-81
2022/12/06 09:29:36;;;;;;;25.00;8.40;;;14.30;74.70;;;;;;4931442;29;20051;-84
2022/12/06 09:32:02;;;;;;;23.58;8.73;;;;;;;;;;4930796;28;20051;-78
2022/12/06 09:34:28;;;;;;;17.67;9.27;;;;;;;;;;4930638;29;20095;-79
2022/12/06 09:37:05;;;;;;;21.33;8.13;;;19.90;51.60;;;;;;4930562;29;20031;-81
2022/12/06 09:39:34;;;;;;;12.82;6.85;;;19.30;49.90;;;;;;4931172;29;20050;-82
2022/12/06 09:42:00;;;;;;;12.52;6.93;;;;;;;;;;4928933;29;20032;-82
2022/12/06 09:44:57;;;;;;;16.67;7.18;;;19.80;49.30;;;;;;4930514;29;20398;-81
2022/12/06 09:47:42;;;;;;;13.65;6.13;;;17.80;47.90;;;;;;4930715;29;20020;-77
2022/12/06 09:50:08;;;;;;;18.98;9.80;;;;;;;;;;4930476;29;20027;-76
2022/12/06 09:52:46;;;;;;;12.82;6.97;;;16.20;52.30;;;;;;4929967;29;20039;-77
2022/12/06 09:55:56;;;;;;;9.70;5.10;;;15.60;53.50;;;;;;4930651;29;20076;-76
2022/12/06 09:58:34;;;;;;;8.15;5.20;;;15.50;55.40;;;;;;4930604;29;20015;-74
2022/12/06 10:01:30;;;;;;;11.88;6.07;;;15.40;57.90;;;;;;4930266;29;20410;-77
2022/12/06 10:04:02;;;;;;;18.10;7.28;;;14.90;54.60;;;;;;4930324;29;20027;-78
2022/12/06 10:06:37;;;;;;;10.57;6.15;;;15.30;53.90;;;;;;4930337;29;20027;-78
2022/12/06 10:09:18;;;;;;;14.38;7.07;;;16.90;57.10;;;;;;4930344;29;20035;-80
2022/12/06 10:12:15;;;;;;;8.48;5.75;;;18.70;56.80;;;;;;4929747;29;20753;-76
2022/12/06 10:15:16;;;;;;;8.77;5.43;;;21.50;45.00;;;;;;4929915;29;20820;-78
2022/12/06 10:17:49;;;;;;;10.38;5.90;;;23.10;43.00;;;;;;4907809;29;20656;-76
2022/12/06 10:20:21;;;;;;;9.13;6.20;;;24.10;51.20;;;;;;4908411;29;20459;-77
2022/12/06 10:23:04;;;;;;;11.82;8.38;;;25.10;38.80;;;;;;4908545;29;20039;-77
2022/12/06 10:25:39;;;;;;;13.85;7.28;;;25.60;39.80;;;;;;4907252;29;20036;-78
2022/12/06 10:28:37;;;;;;;12.85;7.20;;;26.50;36.40;;;;;;4908433;29;20048;-81
2022/12/06 10:31:30;;;;;;;10.38;7.07;;;24.20;37.00;;;;;;4908675;29;20032;-85
2022/12/06 10:34:19;;;;;;;18.73;10.55;;;23.40;43.20;;;;;;4901872;29;20059;-81
2022/12/06 10:36:52;;;;;;;18.67;8.05;;;21.80;39.40;;;;;;4908256;29;20086;-76
2022/12/06 10:39:32;;;;;;;8.13;6.00;;;21.50;40.00;;;;;;4907826;29;20103;-78
2022/12/06 10:42:28;;;;;;;11.27;6.53;;;21.20;39.80;;;;;;4908336;29;20099;-79
2022/12/06 10:47:02;;;;;;;11.10;7.25;;;22.90;38.70;;;;;;4908139;29;20036;-79
2022/12/06 10:47:56;;;;;;;12.65;7.60;;;22.70;37.80;;;;;;4903349;29;20771;-77
2022/12/06 10:50:28;;;;;;;9.48;5.97;;;21.10;37.90;;;;;;4908356;29;20034;-79
2022/12/06 10:53:00;;;;;;;12.43;6.72;;;21.60;43.10;;;;;;4915206;29;20056;-76
2022/12/06 10:55:39;;;;;;;13.20;8.15;;;24.10;41.50;;;;;;4929531;29;20016;-81
2022/12/06 10:58:51;;;;;;;12.95;8.50;;;25.10;35.40;;;;;;4930197;29;20038;-79
2022/12/06 11:01:22;;;;;;;9.93;6.97;;;25.20;45.60;;;;;;4888705;29;20029;-78
2022/12/06 11:03:56;;;;;;;13.02;7.28;;;26.70;34.00;;;;;;4889574;29;20040;-82
2022/12/06 11:06:34;;;;;;;12.68;8.40;;;27.40;33.30;;;;;;4889354;29;20037;-81
2022/12/06 11:09:42;;;;;;;9.35;6.22;;;27.10;32.10;;;;;;4885416;29;20530;-76
2022/12/06 11:12:19;;;;;;;11.07;7.07;;;27.00;33.80;;;;;;4889151;29;20143;-76
2022/12/06 11:14:51;;;;;;;11.63;7.05;;;27.40;32.20;;;;;;4889000;29;20037;-77
2022/12/06 11:17:22;;;;;;;11.10;8.48;;;27.00;33.50;;;;;;4888631;29;20032;-76
2022/12/06 11:20:08;;;;;;;10.05;6.72;;;27.50;35.70;;;;;;4889225;29;20041;-76
2022/12/06 11:22:33;;;;;;;12.95;8.85;;;;;;;;;;4889219;29;20140;-77
2022/12/06 11:25:17;;;;;;;8.68;6.03;;;27.60;31.10;;;;;;4898641;29;20130;-77
2022/12/06 11:27:59;;;;;;;5.47;3.80;;;27.40;31.40;;;;;;4889109;29;20032;-77
2022/12/06 11:30:26;;;;;;;4.97;3.50;;;26.70;41.70;;;;;;4889068;29;20541;-77
2022/12/06 11:32:52;;;;;;;;;;;26.60;31.10;;;;;;4889218;29;20048;-77
2022/12/06 11:35:23;;;;;;;4.45;3.17;;;24.90;38.60;;;;;;4888903;29;19912;-77
2022/12/06 11:38:04;;;;;;;4.38;3.25;;;23.90;32.00;;;;;;4899437;29;20130;-77
2022/12/06 11:40:39;;;;;;;4.38;2.97;;;22.70;33.20;;;;;;4933089;29;20038;-78
2022/12/06 11:43:11;;;;;;;4.60;3.78;;;22.20;34.50;;;;;;4932984;29;20151;-80
2022/12/06 11:45:40;;;;;;;5.40;3.40;;;21.60;47.50;;;;;;4932162;29;20126;-80
2022/12/06 11:48:17;;;;;;;4.30;3.10;;;21.10;35.60;;;;;;4932867;29;20023;-80
2022/12/06 11:50:45;;;;;;;4.95;3.25;;;20.30;36.60;;;;;;4933026;29;20034;-80
2022/12/06 11:53:15;;;;;;;;;;;20.20;37.00;;;;;;4932294;29;20524;-80
2022/12/06 11:55:44;;;;;;;3.50;2.85;;;18.40;51.30;;;;;;4933080;29;19907;-79
2022/12/06 11:58:10;;;;;;;6.55;3.63;;;18.10;45.30;;;;;;4920372;29;20106;-82
2022/12/06 12:00:37;;;;;;;4.78;3.15;;;17.50;42.80;;;;;;4932939;29;20745;-81
2022/12/06 12:03:03;;;;;;;5.30;3.60;;;;;;;;;;4933112;29;20031;-83
2022/12/06 12:05:37;;;;;;;8.43;3.22;;;16.40;42.40;;;;;;4932355;29;20046;-81
2022/12/06 12:08:15;;;;;;;4.85;3.28;;;16.10;42.90;;;;;;4932598;29;20441;-77
2022/12/06 12:10:55;;;;;;;8.63;4.55;;;15.90;43.50;;;;;;4930653;29;20127;-78
2022/12/06 12:16:33;;;;;;;9.32;4.53;;;15.00;44.70;;;;;;4931608;29;20552;-77
2022/12/06 12:19:20;;;;;;;7.00;3.75;;;14.50;45.60;;;;;;4912653;29;20119;-78
2022/12/06 12:21:46;;;;;;;5.65;4.00;;;;;;;;;;4912613;29;20090;-78
2022/12/06 12:24:47;;;;;;;7.13;4.53;;;13.60;51.70;;;;;;4907168;29;20519;-78
2022/12/06 12:27:32;;;;;;;7.78;4.22;;;13.60;50.20;;;;;;4854223;29;20057;-78
2022/12/06 12:30:37;;;;;;;6.05;3.58;;;13.70;47.80;;;;;;4854097;29;20120;-82
2022/12/06 12:33:06;;;;;;;6.60;4.50;;;13.40;48.10;;;;;;4790428;29;20078;-80
2022/12/06 12:35:37;;;;;;;6.18;3.47;;;13.30;48.10;;;;;;4798977;29;20077;-79
2022/12/06 12:38:17;;;;;;;5.30;3.60;;;13.10;49.00;;;;;;4806150;29;20118;-77
2022/12/06 12:40:46;;;;;;;7.82;3.42;;;12.70;64.30;;;;;;4809097;29;20400;-82
2022/12/06 12:43:12;;;;;;;13.05;4.40;;;;;;;;;;4808822;29;20044;-78
2022/12/06 12:45:39;;;;;;;7.85;4.88;;;12.30;65.70;;;;;;4810389;29;20038;-86
2022/12/06 12:48:23;;;;;;;4.75;3.65;;;13.10;57.40;;;;;;4805374;29;20121;-79
2022/12/06 12:50:56;;;;;;;6.03;3.72;;;13.50;49.80;;;;;;4804594;29;20047;-82
2022/12/06 12:53:29;;;;;;;8.63;4.15;;;13.50;49.50;;;;;;4797347;29;20051;-75
2022/12/06 12:56:17;;;;;;;6.00;4.25;;;13.10;55.10;;;;;;4810070;29;20043;-75
2022/12/06 12:58:45;;;;;;;4.97;3.50;;;13.20;49.70;;;;;;4813721;29;20035;-76
2022/12/06 13:01:23;;;;;;;7.10;4.43;;;13.10;50.10;;;;;;4808257;29;20038;-75
2022/12/06 13:03:53;;;;;;;9.82;4.85;;;12.30;50.80;;;;;;4870886;29;20029;-75
2022/12/06 13:06:46;;;;;;;9.38;4.70;;;12.00;51.80;;;;;;4866637;29;20028;-75
2022/12/06 13:09:27;;;;;;;7.72;4.47;;;11.70;52.50;;;;;;4921363;29;20046;-75
2022/12/06 13:11:57;;;;;;;12.15;5.35;;;11.70;52.70;;;;;;4931440;29;20535;-80
2022/12/06 13:14:26;;;;;;;11.80;5.25;;;11.60;53.20;;;;;;4921972;29;20032;-75
2022/12/06 13:16:54;;;;;;;7.85;4.22;;;12.00;54.30;;;;;;4930990;29;20034;-75
2022/12/06 13:19:28;;;;;;;10.40;4.95;;;11.10;54.00;;;;;;4931377;29;20457;-78
2022/12/06 13:21:54;;;;;;;6.75;4.65;;;12.20;55.00;;;;;;4930905;29;20024;-77
2022/12/06 13:24:26;;;;;;;9.00;5.47;;;10.90;54.60;;;;;;4931563;29;20035;-78
2022/12/06 13:26:59;;;;;;;7.50;4.68;;;10.60;55.20;;;;;;4930930;29;20440;-77
2022/12/06 13:29:46;;;;;;;7.82;4.63;;;10.50;55.50;;;;;;4930835;29;20027;-76
2022/12/06 13:32:24;;;;;;;11.15;5.13;;;10.00;72.10;;;;;;4931169;29;20417;-78
2022/12/06 13:34:58;;;;;;;11.55;5.35;;;10.20;58.10;;;;;;4930650;29;20039;-79
2022/12/06 13:37:43;;;;;;;10.70;4.65;;;10.70;57.70;;;;;;4930992;29;20051;-81
2022/12/06 13:40:36;;;;;;;11.13;6.13;;;10.10;56.60;;;;;;4930917;29;20115;-77
2022/12/06 13:43:05;;;;;;;9.38;5.82;;;10.20;58.20;;;;;;4933271;29;20035;-75
2022/12/06 13:45:44;;;;;;;9.57;5.53;;;9.90;57.80;;;;;;4929740;29;20031;-79
2022/12/06 13:48:24;;;;;;;9.35;4.57;;;9.70;60.50;;;;;;4930574;29;20573;-80
2022/12/06 13:50:54;;;;;;;7.38;3.95;;;9.70;65.40;;;;;;4933357;29;20087;-79
2022/12/06 13:53:22;;;;;;;7.80;3.85;;;9.50;58.70;;;;;;4932829;29;20059;-80
2022/12/06 13:56:01;;;;;;;6.35;4.07;;;9.50;59.40;;;;;;4930606;29;20099;-78
2022/12/06 13:58:27;;;;;;;7.88;4.38;;;;;;;;;;4930499;29;20094;-80
2022/12/06 14:00:56;;;;;;;8.90;4.85;;;9.40;60.00;;;;;;4930098;29;20816;-77
2022/12/06 14:03:24;;;;;;;9.90;4.40;;;;;;;;;;4930571;29;20034;-77
2022/12/06 14:05:50;;;;;;;8.85;5.10;;;;;;;;;;4930370;29;20533;-75
2022/12/06 14:08:16;;;;;;;13.02;6.32;;;;;;;;;;4920789;29;20115;-78
2022/12/06 14:10:42;;;;;;;8.95;4.97;;;;;;;;;;4930608;29;20023;-78
2022/12/06 14:13:15;;;;;;;12.57;5.45;;;11.10;71.80;;;;;;4930139;29;20118;-79